Startpagina
METAR-TAF:

METAR-TAF

Vliegvelden :

Funchal, Madeira, Portugal

Aeroporto da Madeira

breedte: 32-41-52N, lengte: 016-46-28W, hoogte: 59 m

Actueel weer

Dit bericht is 47 minuten geleden gemaakt, om 18:30 UTC
Wind 14 kt uit het noordnoordoosten
Temperatuur 21°C
Vochtigheid 88%
Druk 1026 hPa
Zicht: 4000 m
Gebroken wolken op 1300 ft
lichte regenbuien, nevel

METAR: LPMA 211830Z 02014KT 4000 -SHRA BR BKN013 21/19 Q1026

Tijdstip: 20:17 (19:17 UTC)

Verwachting

Dit bericht is 2 uur en het 7 minuten geleden gemaakt, om 17:10 UTC
Verwachting geldig van 21 om 18 UTC tot 22 om 18 UTC
Wind 12 kt uit het noordnoordoosten
Zicht 10 km of meer
Verspreide wolken op 1500 ft
Kans 30% :
Tijdelijke
van 21 om 18 UTC tot 22 om 09 UTC
Zicht: 6000 m
Weinig wolken op 800 ft
Gebroken wolken op 1500 ft
lichte regen, motregen

TAF: LPMA 211710Z 2118/2218 02012KT 9999 SCT015 PROB30 TEMPO 2118/2209 6000 -RADZ FEW008 BKN015

Waarnemingen en weersverwachtingen van meer dan 4000 vliegvelden (METAR en TAF).

De beschikbare stations zijn de gele en rode punten op de kaart.

Ga met uw muis naar het station om de naam te zien.

Klik dan om waarnemingen en weersverwachtingen te zien.

kaart wijzigen: klik op de groene knoppen met een zwart kruis om in te zoomen, op de groene knop met een streepje om uit te zoomen of op de groene pijlen voor aangrenzende kaarten.


METAR-TAF: